Thunder radar more information blitzortung!


avis per Pluja more information rain snow radar


Visita la nostra xarxa de llocs de meteo:

Template documentation
and downloads

And another site



Rain From: 15-11-2018 00:00 Until: 23:59 warning for: Rain Level: Yellow info button

Pagina Historial Weather Underground text

Diari Resum May 5, 2017 Unitats:  Imperial    Mètric   Tant
« Previous Dia
SegĂźent Dia »
Diari Setmana Mensual Anual Personalitzada
  Maxima: Minima: Media:
Temperatura: TemperatureC °F 11.9 °F 17.3 °F
Punt de rosada: DewpointC °F 6.8 °F 9.3 °F
Humitat: Humidity % 44 % 60 %
Wind Speed: WindSpeedKMH mph 0.0 mph 9.6 mph
RĂ fegues de vent: WindSpeedGustKMH mph - -
Vent:- - East
Pression baro: PressurehPa in 1009.0 in -
Precipitacions: 0.0 in    
Historical Graphs
 
 
Dades de taula per May 5, 2017
Temps Temperatura Punt de rosada Pression baro Vent Wind Speed RĂ fegues de vent Humitat Rainfall Rate (Hourly)
TemperatureC °F DewpointC °F PressurehPa in Calm     Humidity % HourlyPrecipMM in
00:01 14.4 °F 11.0 °F 1015.8 in NNE 3.7 mph 3.7 mph 80 % 0.0 in
00:05 12.6 °F 9.8 °F 1013.8 in NE 3.2 mph 3.2 mph 83 % 0.0 in
00:06 14.4 °F 11.2 °F 1015.8 in NE 3.7 mph 3.7 mph 81 % 0.0 in
00:11 14.4 °F 11.0 °F 1015.8 in NNE 3.7 mph 3.7 mph 80 % 0.0 in
00:15 12.6 °F 9.8 °F 1013.8 in NE 3.2 mph 4.8 mph 83 % 0.0 in
00:25 12.6 °F 9.8 °F 1013.8 in ENE 4.8 mph 4.8 mph 83 % 0.0 in
00:35 12.6 °F 9.8 °F 1013.8 in ENE 3.2 mph 4.8 mph 83 % 0.0 in
00:45 12.5 °F 9.7 °F 1013.8 in ENE 1.6 mph 4.8 mph 83 % 0.0 in
00:55 12.4 °F 9.6 °F 1013.8 in NE 3.2 mph 4.8 mph 83 % 0.0 in
01:05 12.4 °F 9.6 °F 1012.8 in NE 3.2 mph 4.8 mph 83 % 0.0 in
01:15 12.2 °F 9.6 °F 1012.8 in NE 3.2 mph 4.8 mph 84 % 0.0 in
01:25 12.1 °F 9.5 °F 1013.8 in NNE 3.2 mph 4.8 mph 84 % 0.0 in
01:35 12.0 °F 9.4 °F 1013.8 in NNE 4.8 mph 6.4 mph 84 % 0.0 in
01:45 12.0 °F 9.4 °F 1013.8 in NE 4.8 mph 6.4 mph 84 % 0.0 in
01:55 12.0 °F 9.4 °F 1013.8 in NE 3.2 mph 4.8 mph 84 % 0.0 in
02:05 11.9 °F 9.3 °F 1014.8 in NE 1.6 mph 4.8 mph 84 % 0.0 in
02:15 12.1 °F 9.5 °F 1014.8 in NE 3.2 mph 3.2 mph 84 % 0.0 in
02:25 12.1 °F 9.5 °F 1014.8 in NE 3.2 mph 4.8 mph 84 % 0.0 in
02:35 12.2 °F 9.6 °F 1014.8 in NE 4.8 mph 8.0 mph 84 % 0.0 in
02:45 12.2 °F 9.6 °F 1014.8 in NE 3.2 mph 4.8 mph 84 % 0.0 in
02:55 12.3 °F 9.7 °F 1014.8 in Calm   4.8 mph 84 % 0.0 in
03:05 12.3 °F 9.7 °F 1014.8 in NE 3.2 mph 4.8 mph 84 % 0.0 in
03:15 12.4 °F 9.8 °F 1014.8 in NNE 4.8 mph 6.4 mph 84 % 0.0 in
03:25 12.6 °F 9.9 °F 1014.8 in NNE 8.0 mph 9.7 mph 84 % 0.0 in
03:35 12.9 °F 10.3 °F 1014.8 in NE 4.8 mph 12.9 mph 84 % 0.0 in
03:45 13.3 °F 10.7 °F 1014.8 in ENE 4.8 mph 9.7 mph 84 % 0.0 in
03:55 13.5 °F 10.7 °F 1014.8 in NE 8.0 mph 8.0 mph 83 % 0.0 in
04:05 13.6 °F 10.6 °F 1013.8 in ENE 8.0 mph 11.3 mph 82 % 0.0 in
04:15 13.8 °F 10.8 °F 1013.8 in East 4.8 mph 6.4 mph 82 % 0.0 in
04:25 13.9 °F 10.9 °F 1014.8 in East 8.0 mph 11.3 mph 82 % 0.0 in
04:35 14.0 °F 10.8 °F 1013.8 in ENE 3.2 mph 8.0 mph 81 % 0.0 in
04:45 14.2 °F 11.0 °F 1013.8 in ENE 8.0 mph 11.3 mph 81 % 0.0 in
04:55 14.5 °F 11.1 °F 1014.8 in ENE 8.0 mph 9.7 mph 80 % 0.0 in
05:05 14.8 °F 11.2 °F 1013.8 in NE 8.0 mph 12.9 mph 79 % 0.0 in
05:15 15.3 °F 11.7 °F 1013.8 in NE 8.0 mph 9.7 mph 79 % 0.0 in
05:25 15.7 °F 11.9 °F 1014.8 in ENE 8.0 mph 9.7 mph 78 % 0.0 in
05:35 16.0 °F 11.8 °F 1014.8 in ENE 8.0 mph 12.9 mph 76 % 0.0 in
10:42 16.0 °F 11.6 °F 1014.8 in NNE 7.4 mph 7.4 mph 75 % 0.0 in
10:47 16.1 °F 11.7 °F 1014.8 in East 7.4 mph 7.4 mph 75 % 0.0 in
10:52 16.2 °F 11.6 °F 1014.8 in ESE 9.3 mph 9.3 mph 74 % 0.0 in
10:57 16.3 °F 11.7 °F 1014.8 in ENE 7.4 mph 7.4 mph 74 % 0.0 in
11:02 16.6 °F 11.7 °F 1014.8 in ESE 9.5 mph 9.5 mph 73 % 0.0 in
11:07 17.1 °F 11.4 °F 1014.8 in ENE 5.6 mph 5.6 mph 69 % 0.0 in
11:12 16.9 °F 10.9 °F 1014.8 in SE 9.3 mph 9.3 mph 68 % 0.0 in
11:17 17.3 °F 11.3 °F 1014.8 in SW 3.7 mph 3.7 mph 68 % 0.0 in
11:22 17.8 °F 12.3 °F 1014.8 in West 3.9 mph 3.9 mph 70 % 0.0 in
11:27 18.2 °F 12.4 °F 1015.8 in West 5.6 mph 5.6 mph 69 % 0.0 in
11:32 18.3 °F 12.5 °F 1015.8 in WSW 3.7 mph 3.7 mph 69 % 0.0 in
11:37 18.5 °F 12.7 °F 1015.8 in NNW 3.7 mph 3.7 mph 69 % 0.0 in
11:42 19.0 °F 12.5 °F 1015.8 in ESE 2.3 mph 2.3 mph 66 % 0.0 in
11:47 19.6 °F 13.1 °F 1015.8 in SW 3.7 mph 3.7 mph 66 % 0.0 in
11:52 19.7 °F 13.4 °F 1015.8 in WSW 5.3 mph 5.3 mph 67 % 0.0 in
11:57 19.9 °F 13.1 °F 1015.8 in SSW 3.7 mph 3.7 mph 65 % 0.0 in
12:02 19.9 °F 12.9 °F 1015.8 in SW 3.7 mph 3.7 mph 64 % 0.0 in
12:07 19.6 °F 12.4 °F 1015.8 in ENE 3.2 mph 3.2 mph 63 % 0.0 in
12:12 19.1 °F 11.7 °F 1014.8 in ESE 5.6 mph 5.6 mph 62 % 0.0 in
12:17 19.4 °F 11.9 °F 1014.8 in East 1.9 mph   62 % 0.0 in
12:22 19.2 °F 11.7 °F 1014.8 in NNE 5.6 mph 5.6 mph 62 % 0.0 in
12:27 19.0 °F 11.3 °F 1014.8 in ESE 5.6 mph 5.6 mph 61 % 0.0 in
12:32 19.0 °F 11.6 °F 1014.8 in East 3.9 mph 3.9 mph 62 % 0.0 in
12:37 18.7 °F 11.3 °F 1014.8 in ESE 3.9 mph 3.9 mph 62 % 0.0 in
12:42 18.9 °F 11.7 °F 1014.8 in East 4.7 mph 4.7 mph 63 % 0.0 in
12:47 18.9 °F 11.7 °F 1014.8 in NNE 6.4 mph 6.4 mph 63 % 0.0 in
12:52 19.1 °F 11.7 °F 1014.8 in ENE 7.4 mph 7.4 mph 62 % 0.0 in
12:57 19.1 °F 11.7 °F 1014.8 in East 13.7 mph 13.7 mph 62 % 0.0 in
13:02 19.1 °F 11.7 °F 1014.8 in ENE 9.3 mph 9.3 mph 62 % 0.0 in
13:07 19.2 °F 11.5 °F 1014.8 in ENE 9.3 mph 9.3 mph 61 % 0.0 in
13:13 19.6 °F 11.9 °F 1012.8 in East 13.0 mph 13.0 mph 61 % 0.0 in
13:18 19.8 °F 11.8 °F 1012.8 in ENE 14.8 mph 14.8 mph 60 % 0.0 in
13:23 20.0 °F 11.2 °F 1012.8 in NNE 14.8 mph 14.8 mph 57 % 0.0 in
13:28 19.7 °F 11.2 °F 1012.8 in ESE 16.7 mph 16.7 mph 58 % 0.0 in
13:33 19.9 °F 10.8 °F 1012.8 in East 13.0 mph 13.0 mph 56 % 0.0 in
13:38 19.7 °F 9.6 °F 1012.8 in ESE 22.2 mph 22.2 mph 52 % 0.0 in
13:43 20.0 °F 10.1 °F 1012.8 in ESE 13.0 mph 13.0 mph 53 % 0.0 in
13:48 20.3 °F 10.1 °F 1012.8 in SE 16.7 mph 16.7 mph 52 % 0.0 in
13:53 20.4 °F 9.6 °F 1012.8 in ESE 16.7 mph 16.7 mph 50 % 0.0 in
13:58 20.5 °F 9.7 °F 1012.8 in SE 18.5 mph 18.5 mph 50 % 0.0 in
14:03 20.9 °F 10.4 °F 1012.8 in East 13.0 mph 13.0 mph 51 % 0.0 in
14:08 21.0 °F 10.2 °F 1012.8 in NNE 9.3 mph 9.3 mph 50 % 0.0 in
14:13 21.4 °F 10.6 °F 1010.7 in ENE 11.1 mph 11.1 mph 50 % 0.0 in
14:18 21.5 °F 10.6 °F 1010.7 in East 9.3 mph 9.3 mph 50 % 0.0 in
14:23 21.9 °F 11.0 °F 1010.7 in ENE 14.8 mph 14.8 mph 50 % 0.0 in
14:28 21.8 °F 10.9 °F 1012.8 in ESE 11.1 mph 11.1 mph 50 % 0.0 in
14:33 21.5 °F 10.3 °F 1012.8 in SE 18.5 mph 18.5 mph 49 % 0.0 in
14:38 21.9 °F 10.7 °F 1012.8 in ESE 16.4 mph 16.4 mph 49 % 0.0 in
14:43 21.8 °F 10.6 °F 1011.7 in ESE 11.1 mph 11.1 mph 49 % 0.0 in
14:48 21.8 °F 10.3 °F 1011.7 in ESE 13.0 mph 13.0 mph 48 % 0.0 in
14:53 21.5 °F 10.0 °F 1011.7 in ENE 13.0 mph 13.0 mph 48 % 0.0 in
14:58 21.7 °F 9.9 °F 1011.7 in ENE 20.4 mph 20.4 mph 47 % 0.0 in
15:03 21.3 °F 9.2 °F 1011.7 in ESE 24.1 mph 24.1 mph 46 % 0.0 in
15:08 21.1 °F 9.3 °F 1011.7 in East 16.7 mph 16.7 mph 47 % 0.0 in
15:13 20.9 °F 8.8 °F 1011.7 in ESE 22.2 mph 22.2 mph 46 % 0.0 in
15:18 20.8 °F 8.8 °F 1011.7 in ENE 27.8 mph 27.8 mph 46 % 0.0 in
15:23 21.3 °F 9.2 °F 1011.7 in East 9.3 mph 9.3 mph 46 % 0.0 in
15:28 21.0 °F 8.3 °F 1011.7 in NNE 13.0 mph 13.0 mph 44 % 0.0 in
15:33 21.1 °F 8.7 °F 1011.7 in ENE 15.6 mph 15.6 mph 45 % 0.0 in
15:38 21.2 °F 9.1 °F 1011.7 in East 16.7 mph 16.7 mph 46 % 0.0 in
15:43 21.0 °F 8.9 °F 1011.7 in ESE 21.7 mph 21.7 mph 46 % 0.0 in
15:48 20.8 °F 9.4 °F 1011.7 in SE 18.5 mph 18.5 mph 48 % 0.0 in
15:53 20.4 °F 9.3 °F 1011.7 in ESE 18.5 mph 18.5 mph 49 % 0.0 in
15:58 20.4 °F 9.3 °F 1011.7 in ESE 20.4 mph 20.4 mph 49 % 0.0 in
16:03 20.2 °F 9.2 °F 1011.7 in SSE 20.4 mph 20.4 mph 49 % 0.0 in
16:08 20.0 °F 9.3 °F 1011.7 in ESE 13.0 mph 13.0 mph 50 % 0.0 in
16:13 20.1 °F 9.3 °F 1011.7 in ESE 22.2 mph 22.2 mph 50 % 0.0 in
16:18 19.9 °F 9.4 °F 1011.7 in ENE 20.4 mph 20.4 mph 51 % 0.0 in
16:23 20.0 °F 9.8 °F 1011.7 in East 18.5 mph 18.5 mph 52 % 0.0 in
16:28 20.0 °F 9.8 °F 1011.7 in ENE 16.7 mph 16.7 mph 52 % 0.0 in
16:33 20.0 °F 9.8 °F 1011.7 in ESE 14.8 mph 14.8 mph 52 % 0.0 in
16:38 19.9 °F 10.1 °F 1011.7 in ESE 16.7 mph 16.7 mph 53 % 0.0 in
16:43 19.9 °F 10.1 °F 1010.7 in ENE 13.0 mph 13.0 mph 53 % 0.0 in
16:48 20.0 °F 10.1 °F 1010.7 in ESE 18.5 mph 18.5 mph 53 % 0.0 in
16:53 20.1 °F 10.2 °F 1010.7 in ESE 11.1 mph 11.1 mph 53 % 0.0 in
16:58 20.1 °F 10.2 °F 1011.7 in ESE 20.4 mph 20.4 mph 53 % 0.0 in
17:03 20.1 °F 10.5 °F 1011.7 in ESE 13.0 mph 13.0 mph 54 % 0.0 in
17:08 20.1 °F 10.2 °F 1011.7 in ENE 20.4 mph 20.4 mph 53 % 0.0 in
17:13 20.0 °F 10.1 °F 1011.7 in East 18.5 mph 18.5 mph 53 % 0.0 in
17:18 19.9 °F 10.1 °F 1011.7 in NE 16.7 mph 16.7 mph 53 % 0.0 in
17:23 20.1 °F 10.2 °F 1011.7 in ESE 9.3 mph 9.3 mph 53 % 0.0 in
17:28 20.0 °F 10.1 °F 1011.7 in ESE 11.1 mph 11.1 mph 53 % 0.0 in
17:33 19.8 °F 9.9 °F 1011.7 in East 14.8 mph 14.8 mph 53 % 0.0 in
17:38 20.1 °F 10.2 °F 1011.7 in ENE 18.5 mph 18.5 mph 53 % 0.0 in
17:43 19.6 °F 9.8 °F 1010.7 in East 14.8 mph 14.8 mph 53 % 0.0 in
17:48 19.7 °F 9.6 °F 1010.7 in NNW 13.0 mph 13.0 mph 52 % 0.0 in
17:53 19.6 °F 9.4 °F 1010.7 in ENE 16.7 mph 16.7 mph 52 % 0.0 in
17:58 19.6 °F 9.4 °F 1011.7 in ENE 14.8 mph 14.8 mph 52 % 0.0 in
18:03 19.4 °F 9.3 °F 1011.7 in NNE 13.0 mph 13.0 mph 52 % 0.0 in
18:08 19.4 °F 9.3 °F 1011.7 in ENE 11.1 mph 11.1 mph 52 % 0.0 in
18:13 19.3 °F 8.9 °F 1011.7 in East 22.2 mph 22.2 mph 51 % 0.0 in
18:18 19.3 °F 8.9 °F 1011.7 in ESE 13.0 mph 13.0 mph 51 % 0.0 in
18:23 19.1 °F 8.7 °F 1011.7 in ENE 14.8 mph 14.8 mph 51 % 0.0 in
18:28 19.0 °F 8.6 °F 1012.8 in NE 14.8 mph 14.8 mph 51 % 0.0 in
18:33 18.8 °F 8.7 °F 1012.8 in East 17.5 mph 17.5 mph 52 % 0.0 in
18:38 18.7 °F 8.9 °F 1012.8 in ENE 16.7 mph 16.7 mph 53 % 0.0 in
18:44 18.6 °F 9.1 °F 1011.7 in ENE 11.1 mph 11.1 mph 54 % 0.0 in
18:49 18.7 °F 9.2 °F 1011.7 in ESE 9.3 mph 9.3 mph 54 % 0.0 in
18:54 18.5 °F 9.3 °F 1011.7 in ENE 20.4 mph 20.4 mph 55 % 0.0 in
18:59 18.4 °F 9.2 °F 1010.7 in North 9.7 mph 9.7 mph 55 % 0.0 in
19:04 18.5 °F 9.6 °F 1010.7 in ESE 11.1 mph 11.9 mph 56 % 0.0 in
19:09 18.4 °F 9.4 °F 1010.7 in NE 11.1 mph 11.1 mph 56 % 0.0 in
19:14 18.4 °F 9.4 °F 1010.7 in East 20.4 mph 20.4 mph 56 % 0.0 in
19:15 16.0 °F 6.9 °F 1010.7 in NE 4.8 mph 4.8 mph 55 % 0.0 in
19:19 18.3 °F 9.1 °F 1010.7 in ENE 16.7 mph 16.7 mph 55 % 0.0 in
19:24 18.3 °F 8.8 °F 1010.7 in ENE 16.7 mph 16.7 mph 54 % 0.0 in
19:29 18.4 °F 8.9 °F 1010.7 in ESE 9.5 mph 9.5 mph 54 % 0.0 in
19:34 18.3 °F 8.8 °F 1010.7 in ESE 16.7 mph 16.7 mph 54 % 0.0 in
19:40 18.3 °F 8.8 °F 1010.7 in East 9.7 mph 16.1 mph 54 % 0.0 in
19:45 18.2 °F 8.7 °F 1010.7 in ENE 16.7 mph 16.7 mph 54 % 0.0 in
19:50 18.1 °F 8.7 °F 1010.7 in ENE 8.0 mph 11.3 mph 54 % 0.0 in
19:55 17.9 °F 8.4 °F 1010.7 in East 12.2 mph 12.2 mph 54 % 0.0 in
20:00 17.9 °F 8.2 °F 1010.0 in ESE 16.7 mph 16.7 mph 53 % 0.0 in
20:05 17.7 °F 8.0 °F 1010.0 in ENE 14.8 mph 14.8 mph 53 % 0.0 in
20:10 17.7 °F 8.0 °F 1010.0 in East 13.0 mph 13.0 mph 53 % 0.0 in
20:15 17.6 °F 7.9 °F 1010.0 in ENE 9.7 mph 16.1 mph 53 % 0.0 in
20:20 17.6 °F 7.9 °F 1010.0 in NE 11.1 mph 11.1 mph 53 % 0.0 in
20:25 17.6 °F 7.9 °F 1010.0 in East 13.0 mph 13.0 mph 53 % 0.0 in
20:30 17.5 °F 7.8 °F 1010.0 in ESE 5.6 mph 5.6 mph 53 % 0.0 in
20:35 17.4 °F 7.7 °F 1010.0 in ESE 9.3 mph 9.3 mph 53 % 0.0 in
20:40 17.4 °F 7.7 °F 1010.0 in ENE 7.6 mph 7.6 mph 53 % 0.0 in
20:45 17.4 °F 7.4 °F 1010.0 in ESE 11.1 mph 11.1 mph 52 % 0.0 in
20:50 17.3 °F 7.3 °F 1010.0 in East 11.9 mph 11.9 mph 52 % 0.0 in
20:55 17.3 °F 7.3 °F 1010.0 in East 11.1 mph 11.1 mph 52 % 0.0 in
21:00 17.2 °F 7.3 °F 1010.7 in East 9.3 mph 9.3 mph 52 % 0.0 in
21:05 17.1 °F 7.2 °F 1010.7 in ENE 7.4 mph 7.4 mph 52 % 0.0 in
21:10 17.1 °F 7.2 °F 1010.7 in ENE 10.0 mph 10.0 mph 52 % 0.0 in
21:15 17.0 °F 7.1 °F 1010.0 in NNE 9.3 mph 9.3 mph 52 % 0.0 in
21:21 17.1 °F 6.9 °F 1010.0 in NNE 7.4 mph 7.4 mph 51 % 0.0 in
21:25 14.9 °F 7.4 °F 1010.0 in Calm   4.8 mph 61 % 0.0 in
21:26 17.1 °F 6.9 °F 1010.0 in ENE 7.4 mph 7.4 mph 51 % 0.0 in
21:31 17.0 °F 6.8 °F 1010.7 in NE 7.4 mph 7.4 mph 51 % 0.0 in
21:35 14.8 °F 7.3 °F 1010.0 in Calm     61 % 0.0 in
21:36 16.9 °F 7.0 °F 1010.7 in NNE 10.0 mph 10.0 mph 52 % 0.0 in
21:41 16.9 °F 7.0 °F 1011.7 in NNE 9.3 mph 9.3 mph 52 % 0.0 in
21:45 14.7 °F 7.3 °F 1010.0 in SW 1.6 mph 3.2 mph 61 % 0.0 in
21:46 16.8 °F 7.2 °F 1011.7 in NE 9.3 mph 9.3 mph 53 % 0.0 in
21:52 16.7 °F 7.1 °F 1011.7 in NNE 9.3 mph 9.3 mph 53 % 0.0 in
21:55 14.7 °F 7.5 °F 1010.0 in Calm   1.6 mph 62 % 0.0 in
21:57 16.6 °F 7.0 °F 1011.7 in NE 9.3 mph 9.3 mph 53 % 0.0 in
22:02 16.5 °F 6.9 °F 1011.7 in NNE 5.6 mph 5.6 mph 53 % 0.0 in
22:05 14.6 °F 7.4 °F 1010.0 in Calm   3.2 mph 62 % 0.0 in
22:07 16.5 °F 7.2 °F 1011.7 in NNE 9.3 mph 9.3 mph 54 % 0.0 in
22:12 16.5 °F 7.2 °F 1011.7 in NNW 9.3 mph 9.3 mph 54 % 0.0 in
22:15 14.6 °F 7.4 °F 1010.0 in WNW 3.2 mph 3.2 mph 62 % 0.0 in
22:17 16.4 °F 7.1 °F 1011.7 in NE 9.3 mph 9.3 mph 54 % 0.0 in
22:22 16.3 °F 7.2 °F 1011.7 in ENE 9.5 mph 9.5 mph 55 % 0.0 in
22:25 14.5 °F 7.6 °F 1010.0 in Calm   1.6 mph 63 % 0.0 in
22:28 16.2 °F 7.2 °F 1010.7 in NNE 9.3 mph 9.3 mph 55 % 0.0 in
22:33 16.1 °F 7.1 °F 1010.7 in NNE 11.9 mph 11.9 mph 55 % 0.0 in
22:35 14.3 °F 7.3 °F 1010.0 in Calm   1.6 mph 63 % 0.0 in
22:38 16.1 °F 7.1 °F 1010.7 in East 5.6 mph 5.6 mph 55 % 0.0 in
22:43 16.1 °F 7.1 °F 1011.7 in ENE 7.4 mph 7.4 mph 55 % 0.0 in
22:45 14.2 °F 7.3 °F 1010.0 in West 1.6 mph 3.2 mph 63 % 0.0 in
22:48 16.2 °F 7.4 °F 1011.7 in NE 5.6 mph 5.6 mph 56 % 0.0 in
22:54 16.2 °F 7.4 °F 1011.7 in NNE 6.9 mph 6.9 mph 56 % 0.0 in
22:55 14.1 °F 7.2 °F 1010.0 in West 1.6 mph 3.2 mph 63 % 0.0 in
22:59 16.2 °F 7.2 °F 1011.7 in ENE 9.3 mph 9.3 mph 55 % 0.0 in
23:04 16.2 °F 7.2 °F 1011.7 in ENE 7.4 mph 7.4 mph 55 % 0.0 in
23:05 14.0 °F 7.1 °F 1010.0 in West 1.6 mph 3.2 mph 63 % 0.0 in
23:09 16.2 °F 7.2 °F 1011.7 in NE 9.5 mph 9.5 mph 55 % 0.0 in
23:14 16.1 °F 7.1 °F 1010.7 in NNE 9.3 mph 9.3 mph 55 % 0.0 in
23:15 14.0 °F 7.3 °F 1010.0 in West 1.6 mph 3.2 mph 64 % 0.0 in
23:19 16.0 °F 6.9 °F 1010.7 in NE 7.4 mph 7.4 mph 55 % 0.0 in
23:24 16.0 °F 6.9 °F 1010.7 in ENE 11.1 mph 11.1 mph 55 % 0.0 in
23:25 13.7 °F 7.0 °F 1009.0 in WSW 3.2 mph 3.2 mph 64 % 0.0 in
23:29 16.0 °F 6.9 °F 1010.7 in NNE 7.6 mph 7.6 mph 55 % 0.0 in
23:34 16.0 °F 6.9 °F 1010.7 in ESE 7.4 mph 7.4 mph 55 % 0.0 in
23:35 13.3 °F 6.8 °F 1010.0 in Calm   3.2 mph 65 % 0.0 in
23:39 16.0 °F 6.9 °F 1010.7 in NNE 5.8 mph 5.8 mph 55 % 0.0 in
23:44 16.0 °F 6.9 °F 1010.7 in NNE 9.3 mph 9.3 mph 55 % 0.0 in
23:45 13.2 °F 7.0 °F 1010.0 in SW 3.2 mph 3.2 mph 66 % 0.0 in
23:49 16.0 °F 6.9 °F 1010.7 in NE 7.4 mph 7.4 mph 55 % 0.0 in
23:54 16.0 °F 6.9 °F 1010.7 in NNE 5.8 mph 5.8 mph 55 % 0.0 in
23:55 13.4 °F 7.2 °F 1010.0 in SW 3.2 mph 4.8 mph 66 % 0.0 in
23:59 16.0 °F 6.9 °F 1010.7 in NE 7.4 mph 7.4 mph 55 % 0.0 in
Meteo Sesrovires
Elogis d' Weather Underground - 2.25 mb

Guio original per  Jim McMurry - jmcmurry@mwt.net Adaptat per a la plantilla per  Wim van der Kuil - Leuven-Template.eu

Trobareu la nostra informacio del temps tambe a:

Weather Underground

AWEKAS